MEA322 OLBA-ORBI
Flight info
| Callsign | MEA322 |
|---|---|
| Flight time | 1h 23m |
| Altitude | 27000 |
| Route | LEBOR R655 KTN/N0467F370 DCT TAN G202 RAPLU DCT SIGBI L200 SILBO |
| Aircraft | A320/M-SDE3FGHIRWY/LB1 |
Departure
| Time | 2026-04-27 11:30 |
|---|---|
| Airport | Beirut Rafic Hariri International Airport (OLBA) |
Arrival
| Time | 2026-04-27 12:54 |
|---|---|
| Airport | Baghdad International Airport / New Al Muthana Air Base (ORBI) |
| Time | Latitude | Longitude | Altitude | Speed | Heading |
|---|---|---|---|---|---|
| 2026-04-27 10:36 | 33.82305 | 35.49116 | 69 ft | 0 kts | 51° |
| 2026-04-27 11:17 | 33.82305 | 35.49115 | 68 ft | 1 kts | 52° |
| 2026-04-27 11:18 | 33.82295 | 35.49101 | 68 ft | 2 kts | 48° |
| 2026-04-27 11:18 | 33.82285 | 35.49088 | 68 ft | 2 kts | 47° |
| 2026-04-27 11:18 | 33.82275 | 35.49075 | 67 ft | 2 kts | 48° |
| 2026-04-27 11:18 | 33.82265 | 35.49062 | 64 ft | 2 kts | 50° |
| 2026-04-27 11:19 | 33.82260 | 35.49045 | 63 ft | 2 kts | 93° |
| 2026-04-27 11:19 | 33.82264 | 35.49027 | 62 ft | 2 kts | 128° |
| 2026-04-27 11:19 | 33.82276 | 35.49016 | 62 ft | 2 kts | 163° |
| 2026-04-27 11:19 | 33.82291 | 35.49014 | 63 ft | 1 kts | 174° |
| 2026-04-27 11:20 | 33.82295 | 35.49014 | 63 ft | 0 kts | 171° |
| 2026-04-27 11:20 | 33.82295 | 35.49013 | 63 ft | 0 kts | 170° |
| 2026-04-27 11:22 | 33.82293 | 35.49014 | 63 ft | 2 kts | 170° |
| 2026-04-27 11:23 | 33.82240 | 35.49024 | 59 ft | 12 kts | 170° |
| 2026-04-27 11:23 | 33.82138 | 35.49035 | 56 ft | 16 kts | 175° |
| 2026-04-27 11:23 | 33.82011 | 35.49044 | 52 ft | 19 kts | 176° |
| 2026-04-27 11:23 | 33.81887 | 35.49054 | 53 ft | 9 kts | 177° |
| 2026-04-27 11:24 | 33.81834 | 35.49056 | 53 ft | 8 kts | 178° |
| 2026-04-27 11:24 | 33.81771 | 35.49059 | 53 ft | 9 kts | 177° |
| 2026-04-27 11:24 | 33.81700 | 35.49065 | 53 ft | 11 kts | 175° |
| 2026-04-27 11:24 | 33.81619 | 35.49071 | 54 ft | 12 kts | 176° |
| 2026-04-27 11:25 | 33.81535 | 35.49054 | 55 ft | 12 kts | 209° |
| 2026-04-27 11:25 | 33.81466 | 35.48993 | 56 ft | 12 kts | 217° |
| 2026-04-27 11:25 | 33.81398 | 35.48931 | 58 ft | 12 kts | 217° |
| 2026-04-27 11:25 | 33.81328 | 35.48872 | 59 ft | 12 kts | 217° |
| 2026-04-27 11:26 | 33.81261 | 35.48812 | 61 ft | 11 kts | 216° |
| 2026-04-27 11:26 | 33.81197 | 35.48759 | 63 ft | 10 kts | 214° |
| 2026-04-27 11:26 | 33.81131 | 35.48705 | 65 ft | 12 kts | 214° |
| 2026-04-27 11:26 | 33.81057 | 35.48642 | 66 ft | 14 kts | 216° |
| 2026-04-27 11:27 | 33.80965 | 35.48562 | 65 ft | 18 kts | 214° |
| 2026-04-27 11:27 | 33.80850 | 35.48466 | 63 ft | 21 kts | 215° |
| 2026-04-27 11:27 | 33.80735 | 35.48365 | 61 ft | 15 kts | 215° |
| 2026-04-27 11:27 | 33.80629 | 35.48336 | 61 ft | 16 kts | 161° |
| 2026-04-27 11:28 | 33.80568 | 35.48432 | 64 ft | 14 kts | 89° |
| 2026-04-27 11:28 | 33.80598 | 35.48539 | 67 ft | 13 kts | 62° |
| 2026-04-27 11:28 | 33.80646 | 35.48643 | 68 ft | 14 kts | 60° |
| 2026-04-27 11:28 | 33.80705 | 35.48753 | 68 ft | 16 kts | 50° |
| 2026-04-27 11:29 | 33.80798 | 35.48843 | 66 ft | 18 kts | 31° |
| 2026-04-27 11:29 | 33.80925 | 35.48887 | 65 ft | 18 kts | 359° |
| 2026-04-27 11:29 | 33.81065 | 35.48877 | 63 ft | 25 kts | 357° |
| 2026-04-27 11:29 | 33.81496 | 35.48850 | 55 ft | 98 kts | 357° |
| 2026-04-27 11:30 | 33.82404 | 35.48793 | 63 ft | 158 kts | 358° |
| 2026-04-27 11:30 | 33.83501 | 35.48725 | 659 ft | 159 kts | 359° |
| 2026-04-27 11:30 | 33.84571 | 35.48737 | 1498 ft | 150 kts | 0° |
| 2026-04-27 11:30 | 33.85579 | 35.48697 | 2218 ft | 148 kts | 356° |
| 2026-04-27 11:31 | 33.86592 | 35.48592 | 2903 ft | 148 kts | 354° |
| 2026-04-27 11:31 | 33.87619 | 35.48476 | 3489 ft | 154 kts | 355° |
| 2026-04-27 11:31 | 33.88731 | 35.48350 | 3984 ft | 169 kts | 356° |
| 2026-04-27 11:31 | 33.89952 | 35.48188 | 4446 ft | 186 kts | 352° |
| 2026-04-27 11:32 | 33.91232 | 35.47647 | 4865 ft | 208 kts | 337° |
| 2026-04-27 11:32 | 33.92600 | 35.46802 | 4978 ft | 231 kts | 333° |
| 2026-04-27 11:32 | 33.94049 | 35.45835 | 4933 ft | 245 kts | 331° |
| 2026-04-27 11:32 | 33.95562 | 35.44805 | 4976 ft | 259 kts | 333° |
| 2026-04-27 11:33 | 33.97228 | 35.43686 | 5295 ft | 285 kts | 333° |
| 2026-04-27 11:33 | 33.98965 | 35.42591 | 6368 ft | 281 kts | 339° |
| 2026-04-27 11:33 | 34.00832 | 35.41998 | 7318 ft | 280 kts | 356° |
| 2026-04-27 11:33 | 34.02773 | 35.41833 | 8150 ft | 285 kts | 359° |
| 2026-04-27 11:34 | 34.04738 | 35.42003 | 8953 ft | 286 kts | 21° |
| 2026-04-27 11:34 | 34.06354 | 35.43296 | 9760 ft | 283 kts | 52° |
| 2026-04-27 11:34 | 34.07567 | 35.45287 | 10592 ft | 288 kts | 56° |
| 2026-04-27 11:34 | 34.08869 | 35.47262 | 11084 ft | 306 kts | 51° |
| 2026-04-27 11:35 | 34.10356 | 35.49179 | 11482 ft | 325 kts | 47° |
| 2026-04-27 11:35 | 34.12041 | 35.51122 | 11799 ft | 344 kts | 44° |
| 2026-04-27 11:35 | 34.13870 | 35.53102 | 12122 ft | 361 kts | 43° |
| 2026-04-27 11:35 | 34.15802 | 35.55134 | 12418 ft | 378 kts | 42° |
| 2026-04-27 11:36 | 34.17807 | 35.57216 | 12773 ft | 390 kts | 42° |
| 2026-04-27 11:36 | 34.19894 | 35.59373 | 13385 ft | 395 kts | 42° |
| 2026-04-27 11:36 | 34.21976 | 35.61520 | 14029 ft | 399 kts | 42° |
| 2026-04-27 11:36 | 34.24107 | 35.63726 | 14688 ft | 400 kts | 42° |
| 2026-04-27 11:37 | 34.26215 | 35.65938 | 15298 ft | 402 kts | 43° |
| 2026-04-27 11:37 | 34.28165 | 35.68261 | 15839 ft | 403 kts | 54° |
| 2026-04-27 11:37 | 34.29495 | 35.71291 | 16443 ft | 402 kts | 73° |
| 2026-04-27 11:37 | 34.29943 | 35.74604 | 17034 ft | 402 kts | 90° |
| 2026-04-27 11:38 | 34.29832 | 35.77959 | 17591 ft | 403 kts | 94° |
| 2026-04-27 11:38 | 34.29681 | 35.81362 | 18087 ft | 408 kts | 94° |
| 2026-04-27 11:38 | 34.29533 | 35.84797 | 18598 ft | 411 kts | 93° |
| 2026-04-27 11:38 | 34.29395 | 35.88263 | 19126 ft | 413 kts | 94° |
| 2026-04-27 11:39 | 34.29258 | 35.91742 | 19614 ft | 417 kts | 93° |
| 2026-04-27 11:39 | 34.29118 | 35.95202 | 20086 ft | 420 kts | 94° |
| 2026-04-27 11:39 | 34.28981 | 35.98765 | 20570 ft | 422 kts | 94° |
| 2026-04-27 11:39 | 34.28846 | 36.02310 | 21066 ft | 424 kts | 94° |
| 2026-04-27 11:40 | 34.28703 | 36.05842 | 21474 ft | 426 kts | 94° |
| 2026-04-27 11:40 | 34.28560 | 36.09428 | 21906 ft | 429 kts | 94° |
| 2026-04-27 11:40 | 34.28419 | 36.13032 | 22320 ft | 432 kts | 94° |
| 2026-04-27 11:40 | 34.28278 | 36.16642 | 22709 ft | 435 kts | 94° |
| 2026-04-27 11:41 | 34.28133 | 36.20329 | 23082 ft | 438 kts | 94° |
| 2026-04-27 11:41 | 34.27987 | 36.23991 | 23476 ft | 441 kts | 94° |
| 2026-04-27 11:41 | 34.27839 | 36.27695 | 23840 ft | 444 kts | 94° |
| 2026-04-27 11:41 | 34.27684 | 36.31416 | 24212 ft | 446 kts | 94° |
| 2026-04-27 11:42 | 34.27529 | 36.35183 | 24572 ft | 448 kts | 94° |
| 2026-04-27 11:42 | 34.27374 | 36.38917 | 24888 ft | 451 kts | 94° |
| 2026-04-27 11:42 | 34.27216 | 36.42722 | 25179 ft | 454 kts | 93° |
| 2026-04-27 11:42 | 34.27057 | 36.46532 | 25463 ft | 457 kts | 93° |
| 2026-04-27 11:43 | 34.26895 | 36.50392 | 25726 ft | 460 kts | 93° |
| 2026-04-27 11:43 | 34.26732 | 36.54233 | 25935 ft | 464 kts | 93° |
| 2026-04-27 11:43 | 34.26556 | 36.58150 | 26145 ft | 467 kts | 95° |
| 2026-04-27 11:43 | 34.26285 | 36.62092 | 26442 ft | 469 kts | 95° |
| 2026-04-27 11:44 | 34.25995 | 36.65989 | 26785 ft | 469 kts | 96° |
| 2026-04-27 11:44 | 34.25698 | 36.69937 | 27092 ft | 470 kts | 96° |
| 2026-04-27 11:44 | 34.25403 | 36.73838 | 27410 ft | 471 kts | 96° |
| 2026-04-27 11:44 | 34.25103 | 36.77784 | 27786 ft | 470 kts | 96° |
| 2026-04-27 11:45 | 34.24806 | 36.81693 | 28150 ft | 470 kts | 96° |
| 2026-04-27 11:45 | 34.24596 | 36.84449 | 28390 ft | 469 kts | 96° |
| 2026-04-27 11:45 | 34.24194 | 36.89711 | 28862 ft | 469 kts | 96° |
| 2026-04-27 11:45 | 34.23897 | 36.93569 | 29210 ft | 468 kts | 96° |
| 2026-04-27 11:46 | 34.23591 | 36.97511 | 29555 ft | 468 kts | 96° |
| 2026-04-27 11:46 | 34.23290 | 37.01403 | 29892 ft | 468 kts | 96° |
| 2026-04-27 11:46 | 34.22988 | 37.05306 | 30205 ft | 468 kts | 97° |
| 2026-04-27 11:46 | 34.22686 | 37.09185 | 30441 ft | 469 kts | 97° |
| 2026-04-27 11:47 | 34.22376 | 37.13121 | 30676 ft | 470 kts | 97° |
| 2026-04-27 11:47 | 34.22001 | 37.17041 | 30888 ft | 471 kts | 100° |
| 2026-04-27 11:47 | 34.21392 | 37.20941 | 31114 ft | 470 kts | 105° |
| 2026-04-27 11:47 | 34.20551 | 37.24731 | 31361 ft | 469 kts | 110° |
| 2026-04-27 11:48 | 34.19479 | 37.28410 | 31608 ft | 468 kts | 114° |
| 2026-04-27 11:48 | 34.18171 | 37.31996 | 31878 ft | 466 kts | 118° |
| 2026-04-27 11:48 | 34.16646 | 37.35448 | 32130 ft | 464 kts | 123° |
| 2026-04-27 11:48 | 34.14975 | 37.38739 | 32371 ft | 463 kts | 125° |
| 2026-04-27 11:49 | 34.13252 | 37.42040 | 32621 ft | 463 kts | 125° |
| 2026-04-27 11:49 | 34.11542 | 37.45307 | 32889 ft | 463 kts | 126° |
| 2026-04-27 11:49 | 34.09819 | 37.48607 | 33137 ft | 463 kts | 126° |
| 2026-04-27 11:49 | 34.08114 | 37.51872 | 33348 ft | 464 kts | 126° |
| 2026-04-27 11:50 | 34.06410 | 37.55136 | 33567 ft | 464 kts | 126° |
| 2026-04-27 11:50 | 34.04701 | 37.58422 | 33825 ft | 464 kts | 126° |
| 2026-04-27 11:50 | 34.02978 | 37.61733 | 34080 ft | 463 kts | 126° |
| 2026-04-27 11:50 | 34.01270 | 37.65007 | 34310 ft | 464 kts | 127° |
| 2026-04-27 11:51 | 33.99564 | 37.68277 | 34520 ft | 464 kts | 127° |
| 2026-04-27 11:51 | 33.97824 | 37.71610 | 34730 ft | 464 kts | 127° |
| 2026-04-27 11:51 | 33.94391 | 37.78181 | 35184 ft | 464 kts | 127° |
| 2026-04-27 11:52 | 33.92681 | 37.81450 | 35319 ft | 465 kts | 127° |
| 2026-04-27 11:52 | 33.90951 | 37.84755 | 35467 ft | 465 kts | 127° |
| 2026-04-27 11:52 | 33.89229 | 37.88037 | 35620 ft | 467 kts | 127° |
| 2026-04-27 11:52 | 33.87542 | 37.91245 | 35783 ft | 468 kts | 127° |
| 2026-04-27 11:53 | 33.85795 | 37.94567 | 35903 ft | 470 kts | 127° |
| 2026-04-27 11:53 | 33.84037 | 37.97908 | 36090 ft | 471 kts | 127° |
| 2026-04-27 11:53 | 33.82303 | 38.01203 | 36234 ft | 473 kts | 127° |
| 2026-04-27 11:53 | 33.80529 | 38.04569 | 36371 ft | 474 kts | 128° |
| 2026-04-27 11:54 | 33.78780 | 38.07887 | 36448 ft | 476 kts | 127° |
| 2026-04-27 11:54 | 33.75239 | 38.14598 | 36650 ft | 479 kts | 127° |
| 2026-04-27 11:54 | 33.73461 | 38.17966 | 36803 ft | 479 kts | 128° |
| 2026-04-27 11:55 | 33.71673 | 38.21342 | 36914 ft | 480 kts | 127° |
| 2026-04-27 11:55 | 33.68095 | 38.28101 | 36896 ft | 483 kts | 127° |
| 2026-04-27 11:56 | 33.64475 | 38.34925 | 36918 ft | 482 kts | 128° |
| 2026-04-27 11:56 | 33.60887 | 38.41681 | 36900 ft | 482 kts | 128° |
| 2026-04-27 11:57 | 33.57276 | 38.48469 | 36905 ft | 483 kts | 128° |
| 2026-04-27 11:57 | 33.53676 | 38.55213 | 36898 ft | 485 kts | 127° |
| 2026-04-27 11:58 | 33.50536 | 38.62458 | 36887 ft | 494 kts | 117° |
| 2026-04-27 11:58 | 33.48473 | 38.70353 | 36887 ft | 503 kts | 106° |
| 2026-04-27 11:59 | 33.47606 | 38.78686 | 36881 ft | 508 kts | 96° |
| 2026-04-27 11:59 | 33.47347 | 38.87130 | 36885 ft | 510 kts | 95° |
| 2026-04-27 12:00 | 33.47068 | 38.95625 | 36871 ft | 510 kts | 96° |
| 2026-04-27 12:00 | 33.46755 | 39.04092 | 36879 ft | 511 kts | 95° |
| 2026-04-27 12:01 | 33.46578 | 39.12578 | 36898 ft | 512 kts | 94° |
| 2026-04-27 12:01 | 33.46418 | 39.21027 | 36883 ft | 512 kts | 94° |
| 2026-04-27 12:02 | 33.46240 | 39.29523 | 36890 ft | 512 kts | 95° |
| 2026-04-27 12:02 | 33.46048 | 39.38056 | 36903 ft | 513 kts | 95° |
| 2026-04-27 12:03 | 33.45851 | 39.46598 | 36933 ft | 513 kts | 95° |
| 2026-04-27 12:03 | 33.45644 | 39.55077 | 36915 ft | 514 kts | 95° |
| 2026-04-27 12:04 | 33.45435 | 39.63606 | 36918 ft | 515 kts | 95° |
| 2026-04-27 12:04 | 33.45215 | 39.72210 | 36926 ft | 514 kts | 96° |
| 2026-04-27 12:05 | 33.44995 | 39.80714 | 36912 ft | 514 kts | 96° |
| 2026-04-27 12:05 | 33.44766 | 39.89280 | 36930 ft | 514 kts | 96° |
| 2026-04-27 12:06 | 33.44533 | 39.97795 | 36916 ft | 513 kts | 96° |
| 2026-04-27 12:06 | 33.44291 | 40.06310 | 36922 ft | 515 kts | 96° |
| 2026-04-27 12:07 | 33.44039 | 40.14861 | 36896 ft | 515 kts | 96° |
| 2026-04-27 12:07 | 33.43792 | 40.23369 | 36911 ft | 514 kts | 96° |
| 2026-04-27 12:08 | 33.43536 | 40.31879 | 36882 ft | 514 kts | 96° |
| 2026-04-27 12:08 | 33.43275 | 40.40424 | 36882 ft | 514 kts | 96° |
| 2026-04-27 12:09 | 33.43007 | 40.48959 | 36890 ft | 515 kts | 96° |
| 2026-04-27 12:09 | 33.42730 | 40.57494 | 36882 ft | 516 kts | 96° |
| 2026-04-27 12:10 | 33.42450 | 40.66059 | 36877 ft | 517 kts | 96° |
| 2026-04-27 12:10 | 33.42168 | 40.74599 | 36884 ft | 516 kts | 97° |
| 2026-04-27 12:11 | 33.41875 | 40.83191 | 36880 ft | 517 kts | 97° |
| 2026-04-27 12:11 | 33.41572 | 40.91753 | 36880 ft | 518 kts | 96° |
| 2026-04-27 12:12 | 33.41273 | 41.00299 | 36883 ft | 517 kts | 96° |
| 2026-04-27 12:12 | 33.40962 | 41.08923 | 36880 ft | 518 kts | 96° |
| 2026-04-27 12:13 | 33.40643 | 41.17505 | 36877 ft | 518 kts | 97° |
| 2026-04-27 12:13 | 33.40323 | 41.26057 | 36882 ft | 517 kts | 97° |
| 2026-04-27 12:14 | 33.39991 | 41.34628 | 36877 ft | 518 kts | 96° |
| 2026-04-27 12:14 | 33.39658 | 41.43254 | 36874 ft | 518 kts | 97° |
| 2026-04-27 12:15 | 33.39314 | 41.51853 | 36878 ft | 519 kts | 97° |
| 2026-04-27 12:15 | 33.38962 | 41.60539 | 36879 ft | 521 kts | 96° |
| 2026-04-27 12:16 | 33.38307 | 41.69077 | 36875 ft | 514 kts | 106° |
| 2026-04-27 12:16 | 33.36338 | 41.77207 | 36861 ft | 503 kts | 118° |
| 2026-04-27 12:17 | 33.33134 | 41.84484 | 36854 ft | 492 kts | 131° |
| 2026-04-27 12:17 | 33.29176 | 41.91053 | 36850 ft | 488 kts | 134° |
| 2026-04-27 12:18 | 33.25156 | 41.97562 | 36858 ft | 490 kts | 133° |
| 2026-04-27 12:18 | 33.21125 | 42.04160 | 36861 ft | 489 kts | 133° |
| 2026-04-27 12:19 | 33.17157 | 42.10681 | 36851 ft | 490 kts | 133° |
| 2026-04-27 12:19 | 33.13139 | 42.17280 | 36855 ft | 491 kts | 133° |
| 2026-04-27 12:20 | 33.09144 | 42.23832 | 36850 ft | 491 kts | 132° |
| 2026-04-27 12:20 | 33.05713 | 42.30965 | 36847 ft | 503 kts | 120° |
| 2026-04-27 12:21 | 33.03489 | 42.38928 | 36837 ft | 515 kts | 107° |
| 2026-04-27 12:21 | 33.02619 | 42.47431 | 36842 ft | 522 kts | 96° |
| 2026-04-27 12:22 | 33.02333 | 42.56089 | 36836 ft | 522 kts | 96° |
| 2026-04-27 12:22 | 33.02039 | 42.64676 | 36831 ft | 521 kts | 96° |
| 2026-04-27 12:23 | 33.01697 | 42.73314 | 36823 ft | 520 kts | 97° |
| 2026-04-27 12:23 | 33.01342 | 42.81768 | 36813 ft | 520 kts | 97° |
| 2026-04-27 12:24 | 33.00970 | 42.90381 | 36810 ft | 520 kts | 97° |
| 2026-04-27 12:24 | 33.00595 | 42.98986 | 36811 ft | 520 kts | 97° |
| 2026-04-27 12:25 | 33.00213 | 43.07583 | 36586 ft | 519 kts | 97° |
| 2026-04-27 12:25 | 33.00023 | 43.11850 | 36326 ft | 517 kts | 97° |
| 2026-04-27 12:25 | 32.99832 | 43.16077 | 35925 ft | 514 kts | 97° |
| 2026-04-27 12:25 | 32.99639 | 43.20310 | 35325 ft | 512 kts | 97° |
| 2026-04-27 12:26 | 32.99443 | 43.24531 | 34737 ft | 514 kts | 96° |
| 2026-04-27 12:26 | 32.99245 | 43.28781 | 33999 ft | 518 kts | 96° |
| 2026-04-27 12:26 | 32.99046 | 43.33073 | 33097 ft | 520 kts | 96° |
| 2026-04-27 12:26 | 32.98854 | 43.37290 | 32200 ft | 512 kts | 96° |
| 2026-04-27 12:27 | 32.98663 | 43.41479 | 31317 ft | 503 kts | 97° |
| 2026-04-27 12:27 | 32.98544 | 43.45590 | 30464 ft | 499 kts | 94° |
| 2026-04-27 12:27 | 32.98606 | 43.49660 | 29653 ft | 498 kts | 90° |
| 2026-04-27 12:27 | 32.98869 | 43.53757 | 28751 ft | 499 kts | 87° |
| 2026-04-27 12:28 | 32.99284 | 43.57896 | 27695 ft | 502 kts | 85° |
| 2026-04-27 12:28 | 32.99726 | 43.61980 | 26590 ft | 507 kts | 85° |
| 2026-04-27 12:28 | 33.00202 | 43.66337 | 25678 ft | 505 kts | 85° |
| 2026-04-27 12:28 | 33.00691 | 43.70825 | 24920 ft | 498 kts | 85° |
| 2026-04-27 12:29 | 33.01119 | 43.74848 | 24251 ft | 492 kts | 85° |
| 2026-04-27 12:29 | 33.01551 | 43.78946 | 23564 ft | 486 kts | 85° |
| 2026-04-27 12:29 | 33.01965 | 43.82913 | 22897 ft | 480 kts | 85° |
| 2026-04-27 12:29 | 33.02374 | 43.86849 | 22229 ft | 474 kts | 85° |
| 2026-04-27 12:30 | 33.02771 | 43.90672 | 21572 ft | 468 kts | 85° |
| 2026-04-27 12:30 | 33.03167 | 43.94508 | 20913 ft | 463 kts | 85° |
| 2026-04-27 12:30 | 33.03554 | 43.98245 | 20442 ft | 445 kts | 85° |
| 2026-04-27 12:30 | 33.03919 | 44.01797 | 20140 ft | 416 kts | 85° |
| 2026-04-27 12:31 | 33.04258 | 44.05081 | 19836 ft | 389 kts | 85° |
| 2026-04-27 12:31 | 33.04572 | 44.08162 | 19583 ft | 365 kts | 86° |
| 2026-04-27 12:31 | 33.04868 | 44.11084 | 19356 ft | 342 kts | 86° |
| 2026-04-27 12:31 | 33.05142 | 44.13817 | 19164 ft | 330 kts | 86° |
| 2026-04-27 12:32 | 33.05410 | 44.16502 | 18922 ft | 322 kts | 86° |
| 2026-04-27 12:32 | 33.05668 | 44.19107 | 18753 ft | 311 kts | 86° |
| 2026-04-27 12:32 | 33.05918 | 44.21608 | 18640 ft | 300 kts | 86° |
| 2026-04-27 12:32 | 33.06163 | 44.24049 | 18502 ft | 290 kts | 86° |
| 2026-04-27 12:33 | 33.06397 | 44.26381 | 18402 ft | 283 kts | 86° |
| 2026-04-27 12:33 | 33.06628 | 44.28701 | 18360 ft | 286 kts | 86° |
| 2026-04-27 12:33 | 33.06860 | 44.31081 | 18294 ft | 292 kts | 86° |
| 2026-04-27 12:33 | 33.07099 | 44.33499 | 18117 ft | 293 kts | 86° |
| 2026-04-27 12:34 | 33.07339 | 44.35895 | 17994 ft | 292 kts | 86° |
| 2026-04-27 12:34 | 33.07558 | 44.38312 | 17791 ft | 292 kts | 91° |
| 2026-04-27 12:34 | 33.07205 | 44.40573 | 17380 ft | 277 kts | 120° |
| 2026-04-27 12:34 | 33.06222 | 44.42532 | 17023 ft | 270 kts | 131° |
| 2026-04-27 12:35 | 33.05159 | 44.44342 | 16668 ft | 269 kts | 131° |
| 2026-04-27 12:35 | 33.04106 | 44.46197 | 16337 ft | 270 kts | 129° |
| 2026-04-27 12:35 | 33.03096 | 44.48082 | 16037 ft | 270 kts | 128° |
| 2026-04-27 12:35 | 33.02116 | 44.49984 | 15729 ft | 269 kts | 127° |
| 2026-04-27 12:36 | 33.01117 | 44.51866 | 15445 ft | 266 kts | 133° |
| 2026-04-27 12:36 | 32.99725 | 44.53183 | 15144 ft | 250 kts | 162° |
| 2026-04-27 12:36 | 32.98091 | 44.53570 | 14863 ft | 237 kts | 187° |
| 2026-04-27 12:36 | 32.96536 | 44.53101 | 14620 ft | 227 kts | 210° |
| 2026-04-27 12:37 | 32.95296 | 44.51973 | 14350 ft | 223 kts | 230° |
| 2026-04-27 12:37 | 32.94538 | 44.50394 | 14110 ft | 221 kts | 251° |
| 2026-04-27 12:37 | 32.94348 | 44.48579 | 13849 ft | 223 kts | 271° |
| 2026-04-27 12:37 | 32.94766 | 44.46809 | 13564 ft | 226 kts | 292° |
| 2026-04-27 12:38 | 32.95752 | 44.45349 | 13325 ft | 231 kts | 314° |
| 2026-04-27 12:38 | 32.97118 | 44.44309 | 13076 ft | 233 kts | 324° |
| 2026-04-27 12:38 | 32.98534 | 44.43364 | 12768 ft | 232 kts | 324° |
| 2026-04-27 12:38 | 33.00016 | 44.42390 | 12453 ft | 230 kts | 325° |
| 2026-04-27 12:39 | 33.01413 | 44.41473 | 12180 ft | 229 kts | 324° |
| 2026-04-27 12:39 | 33.02801 | 44.40555 | 11896 ft | 227 kts | 325° |
| 2026-04-27 12:39 | 33.04176 | 44.39646 | 11611 ft | 225 kts | 325° |
| 2026-04-27 12:39 | 33.05525 | 44.38751 | 11337 ft | 223 kts | 325° |
| 2026-04-27 12:40 | 33.06892 | 44.37846 | 11076 ft | 222 kts | 325° |
| 2026-04-27 12:40 | 33.08257 | 44.37012 | 10803 ft | 224 kts | 336° |
| 2026-04-27 12:40 | 33.09818 | 44.36788 | 10524 ft | 232 kts | 2° |
| 2026-04-27 12:40 | 33.11369 | 44.37361 | 10224 ft | 237 kts | 28° |
| 2026-04-27 12:41 | 33.12602 | 44.38652 | 9932 ft | 236 kts | 55° |
| 2026-04-27 12:41 | 33.13280 | 44.40415 | 9675 ft | 232 kts | 81° |
| 2026-04-27 12:41 | 33.13303 | 44.42297 | 9428 ft | 225 kts | 105° |
| 2026-04-27 12:41 | 33.12739 | 44.43969 | 9155 ft | 217 kts | 128° |
| 2026-04-27 12:42 | 33.11719 | 44.45236 | 8893 ft | 209 kts | 149° |
| 2026-04-27 12:42 | 33.10469 | 44.46098 | 8632 ft | 205 kts | 155° |
| 2026-04-27 12:42 | 33.09213 | 44.46889 | 8385 ft | 203 kts | 155° |
| 2026-04-27 12:42 | 33.07972 | 44.47679 | 8138 ft | 202 kts | 154° |
| 2026-04-27 12:43 | 33.06751 | 44.48473 | 7902 ft | 201 kts | 154° |
| 2026-04-27 12:43 | 33.05513 | 44.49281 | 7654 ft | 200 kts | 153° |
| 2026-04-27 12:43 | 33.04311 | 44.50073 | 7403 ft | 199 kts | 152° |
| 2026-04-27 12:43 | 33.03101 | 44.50875 | 7158 ft | 197 kts | 152° |
| 2026-04-27 12:44 | 33.01888 | 44.51629 | 6902 ft | 194 kts | 161° |
| 2026-04-27 12:44 | 33.00580 | 44.51883 | 6666 ft | 192 kts | 181° |
| 2026-04-27 12:44 | 32.99267 | 44.51556 | 6450 ft | 193 kts | 199° |
| 2026-04-27 12:44 | 32.98111 | 44.50728 | 6206 ft | 197 kts | 217° |
| 2026-04-27 12:45 | 32.97241 | 44.49451 | 5957 ft | 201 kts | 236° |
| 2026-04-27 12:45 | 32.96790 | 44.47857 | 5722 ft | 208 kts | 257° |
| 2026-04-27 12:45 | 32.96852 | 44.46130 | 5484 ft | 213 kts | 281° |
| 2026-04-27 12:45 | 32.97459 | 44.44517 | 5259 ft | 217 kts | 303° |
| 2026-04-27 12:46 | 32.98539 | 44.43277 | 5011 ft | 216 kts | 326° |
| 2026-04-27 12:46 | 32.99840 | 44.42379 | 4784 ft | 215 kts | 332° |
| 2026-04-27 12:46 | 33.01152 | 44.41531 | 4671 ft | 213 kts | 333° |
| 2026-04-27 12:46 | 33.02445 | 44.40695 | 4532 ft | 211 kts | 332° |
| 2026-04-27 12:47 | 33.03726 | 44.39858 | 4322 ft | 205 kts | 332° |
| 2026-04-27 12:47 | 33.04966 | 44.39062 | 4090 ft | 199 kts | 335° |
| 2026-04-27 12:47 | 33.06157 | 44.38316 | 3798 ft | 190 kts | 335° |
| 2026-04-27 12:47 | 33.07295 | 44.37592 | 3497 ft | 182 kts | 335° |
| 2026-04-27 12:48 | 33.08368 | 44.36882 | 3367 ft | 164 kts | 335° |
| 2026-04-27 12:48 | 33.09316 | 44.36241 | 3370 ft | 155 kts | 333° |
| 2026-04-27 12:48 | 33.10244 | 44.35602 | 3313 ft | 149 kts | 335° |
| 2026-04-27 12:48 | 33.11120 | 44.34987 | 3155 ft | 142 kts | 334° |
| 2026-04-27 12:49 | 33.11965 | 44.34408 | 2975 ft | 139 kts | 335° |
| 2026-04-27 12:49 | 33.12800 | 44.33826 | 2789 ft | 138 kts | 335° |
| 2026-04-27 12:49 | 33.13632 | 44.33247 | 2605 ft | 137 kts | 336° |
| 2026-04-27 12:49 | 33.14452 | 44.32678 | 2427 ft | 135 kts | 336° |
| 2026-04-27 12:50 | 33.15265 | 44.32116 | 2251 ft | 134 kts | 336° |
| 2026-04-27 12:50 | 33.16072 | 44.31559 | 2073 ft | 133 kts | 337° |
| 2026-04-27 12:50 | 33.16864 | 44.31016 | 1902 ft | 132 kts | 338° |
| 2026-04-27 12:50 | 33.17659 | 44.30470 | 1737 ft | 131 kts | 338° |
| 2026-04-27 12:51 | 33.18449 | 44.29926 | 1572 ft | 130 kts | 339° |
| 2026-04-27 12:51 | 33.19239 | 44.29386 | 1412 ft | 129 kts | 337° |
| 2026-04-27 12:51 | 33.20014 | 44.28854 | 1250 ft | 129 kts | 337° |
| 2026-04-27 12:51 | 33.20797 | 44.28318 | 1089 ft | 128 kts | 337° |
| 2026-04-27 12:52 | 33.21569 | 44.27788 | 926 ft | 128 kts | 336° |
| 2026-04-27 12:52 | 33.22338 | 44.27261 | 761 ft | 127 kts | 336° |
| 2026-04-27 12:52 | 33.23110 | 44.26730 | 601 ft | 126 kts | 336° |
| 2026-04-27 12:52 | 33.23867 | 44.26211 | 441 ft | 126 kts | 335° |
| 2026-04-27 12:53 | 33.25374 | 44.25170 | 138 ft | 122 kts | 337° |
| 2026-04-27 12:53 | 33.26007 | 44.24762 | 123 ft | 74 kts | 324° |
| 2026-04-27 12:53 | 33.26391 | 44.24485 | 126 ft | 55 kts | 325° |
| 2026-04-27 12:54 | 33.26634 | 44.24315 | 125 ft | 28 kts | 328° |
| 2026-04-27 12:54 | 33.26749 | 44.24183 | 123 ft | 22 kts | 306° |
| 2026-04-27 12:54 | 33.26834 | 44.24025 | 123 ft | 22 kts | 300° |
| 2026-04-27 12:54 | 33.26909 | 44.23878 | 123 ft | 20 kts | 310° |
| 2026-04-27 12:55 | 33.27027 | 44.23785 | 124 ft | 20 kts | 330° |
| 2026-04-27 12:55 | 33.27150 | 44.23701 | 124 ft | 20 kts | 332° |
| 2026-04-27 12:55 | 33.27275 | 44.23616 | 125 ft | 20 kts | 331° |
| 2026-04-27 12:55 | 33.27367 | 44.23539 | 128 ft | 15 kts | 292° |
| 2026-04-27 12:56 | 33.27334 | 44.23421 | 129 ft | 15 kts | 240° |
| 2026-04-27 12:56 | 33.27278 | 44.23306 | 129 ft | 17 kts | 239° |
| 2026-04-27 12:56 | 33.27216 | 44.23176 | 130 ft | 18 kts | 240° |
| 2026-04-27 12:56 | 33.27160 | 44.23059 | 129 ft | 12 kts | 240° |
| 2026-04-27 12:57 | 33.27096 | 44.23031 | 133 ft | 8 kts | 160° |
| 2026-04-27 12:57 | 33.27058 | 44.23047 | 137 ft | 3 kts | 160° |
| 2026-04-27 12:57 | 33.27046 | 44.23052 | 138 ft | 0 kts | 160° |
| 2026-04-27 12:57 | 33.27043 | 44.23054 | 138 ft | 1 kts | 160° |
| 2026-04-27 12:58 | 33.27032 | 44.23058 | 139 ft | 1 kts | 161° |
| 2026-04-27 12:58 | 33.27027 | 44.23060 | 140 ft | 0 kts | 161° |